Andover, New York
Current Conditions -  °F | °C
As of 12:56 PM on Wednesday 28 Jan 2015 (Local Time) from KELZ Reporting Station
Clear Clear  
Wind Chill: 11°   Ceiling: Unl
Heat Index: 22°   Visibility: 10mi
Dew Point: -1°   Wind: 10mph
Humidity: 37%   Direction: 330°NNW
Pressure: 30.16"   Gusts: NA
Location:  42.16°N, 77.8°W
Report Text: KELZ 281756Z AUTO 33009KT 10SM CLR M06/M18 A3016 RMK AO2 SLP254 T10561183 11056 21139 50001
Loading
Personal Weather Stations






























Interactive Weather Map New forecast layout! Learn more

10-Day Weather Forecast

Advertisements
Track Severe Weather on mobile